createdAt,value
2018-06-12T07:45:05.188Z,119
2018-06-12T07:50:04.271Z,119
2018-06-12T07:55:04.338Z,119
2018-06-12T08:00:04.289Z,119
2018-06-12T08:05:04.274Z,119
2018-06-12T08:10:04.285Z,119
2018-06-12T08:15:04.288Z,119
2018-06-12T08:20:04.289Z,119
2018-06-12T08:25:04.285Z,119
2018-06-12T08:30:04.595Z,119
2018-06-12T08:35:04.296Z,119
2018-06-12T08:40:04.303Z,119
2018-06-12T08:45:04.313Z,119
2018-06-12T08:50:04.314Z,119
2018-06-12T08:55:04.307Z,119
2018-06-12T09:00:04.310Z,119
2018-06-12T09:05:04.325Z,119
2018-06-12T09:10:04.307Z,119
2018-06-12T09:15:04.311Z,119
2018-06-12T09:20:04.331Z,119
2018-06-12T09:25:04.419Z,119
2018-06-12T09:30:04.321Z,119
2018-06-12T09:35:04.336Z,119
2018-06-12T09:40:04.333Z,119
2018-06-12T09:45:04.329Z,119
2018-06-12T09:50:04.352Z,119
2018-06-12T09:55:04.342Z,119
2018-06-12T10:00:04.337Z,119
2018-06-12T10:05:04.357Z,119
2018-06-12T10:10:04.345Z,119
2018-06-12T10:15:04.353Z,119
2018-06-12T10:20:04.366Z,119
2018-06-12T10:25:04.521Z,119
2018-06-12T10:30:04.352Z,119
2018-06-12T10:35:04.359Z,119
2018-06-12T10:40:04.357Z,119
2018-06-12T10:45:04.372Z,119
2018-06-12T10:50:04.562Z,119
2018-06-12T10:55:04.379Z,119
2018-06-12T11:00:04.379Z,119
2018-06-12T11:05:04.389Z,119
2018-06-12T11:10:04.391Z,119
2018-06-12T11:15:04.381Z,119
2018-06-12T11:20:04.401Z,119
2018-06-12T11:25:04.396Z,119
2018-06-12T11:30:04.388Z,119
2018-06-12T11:35:04.403Z,119
2018-06-12T11:40:04.407Z,119
2018-06-12T11:45:04.412Z,119
2018-06-12T11:50:04.415Z,119
2018-06-12T11:55:04.404Z,119
2018-06-12T12:00:04.414Z,119
2018-06-12T12:05:04.421Z,119
2018-06-12T12:10:04.426Z,119
2018-06-12T12:15:04.412Z,119
2018-06-12T12:20:03.405Z,119
2018-06-12T12:25:03.430Z,119
2018-06-12T12:30:03.417Z,119
2018-06-12T12:35:03.423Z,119
2018-06-12T12:40:03.432Z,119
2018-06-12T12:45:03.473Z,111.08
2018-06-12T12:50:03.442Z,108.35
2018-06-12T12:55:03.459Z,104.56
2018-06-12T13:00:03.431Z,101.89
2018-06-12T13:05:03.435Z,102.15
2018-06-12T13:10:03.435Z,104.69
2018-06-12T13:15:03.473Z,101.07
2018-06-12T13:20:03.442Z,94.86
2018-06-12T13:25:03.512Z,86.04
2018-06-12T13:30:03.464Z,88.79
2018-06-12T13:35:03.450Z,90.71
2018-06-12T13:40:03.454Z,89.52
2018-06-12T13:45:03.475Z,90.55
2018-06-12T13:50:03.461Z,93.57
2018-06-12T13:55:03.470Z,101.07
2018-06-12T14:00:03.468Z,86.62
2018-06-12T14:05:03.489Z,80.63
2018-06-12T14:10:03.468Z,86.98
2018-06-12T14:15:03.481Z,88.99
2018-06-12T14:20:03.486Z,89.42
2018-06-12T14:25:03.480Z,88.7
2018-06-12T14:30:03.487Z,87.75
2018-06-12T14:35:03.496Z,97.66
2018-06-12T14:40:03.485Z,97.97
2018-06-12T14:45:03.498Z,90.65
2018-06-12T14:50:03.529Z,84.79
2018-06-12T14:55:03.495Z,91.09
2018-06-12T15:00:03.517Z,99.69
2018-06-12T15:05:03.519Z,103.94
2018-06-12T15:10:03.518Z,103.91
2018-06-12T15:15:03.515Z,104.13
2018-06-12T15:20:03.582Z,104.48
2018-06-12T15:25:03.522Z,105.17
2018-06-12T15:30:03.513Z,98.79
2018-06-12T15:35:03.558Z,99.13
2018-06-12T15:40:03.520Z,99.64
2018-06-12T15:45:03.727Z,101.16
2018-06-12T15:50:03.544Z,105.45
2018-06-12T15:55:03.549Z,109.22
2018-06-12T16:00:03.549Z,114.17
2018-06-12T16:05:03.567Z,116.69
2018-06-12T16:10:03.551Z,119
2018-06-12T16:15:03.552Z,119
2018-06-12T16:20:03.558Z,119
2018-06-12T16:25:03.550Z,119
2018-06-12T16:30:03.621Z,116.34
2018-06-12T16:35:03.563Z,119
2018-06-12T16:40:03.561Z,119
2018-06-12T16:45:03.565Z,119
2018-06-12T16:50:03.578Z,119
2018-06-12T16:55:03.569Z,119
2018-06-12T17:00:03.568Z,119
2018-06-12T17:05:03.570Z,119
2018-06-12T17:10:03.586Z,119
2018-06-12T17:15:03.577Z,119
2018-06-12T17:20:03.589Z,119
2018-06-12T17:25:03.593Z,119
2018-06-12T17:30:03.585Z,119
2018-06-12T17:35:03.583Z,119
2018-06-12T17:40:03.596Z,119
2018-06-12T17:45:03.587Z,119
2018-06-12T17:50:03.594Z,119
2018-06-12T17:55:03.641Z,119
2018-06-12T18:00:03.601Z,119
2018-06-12T18:05:03.604Z,119
2018-06-12T18:10:03.625Z,119
2018-06-12T18:15:03.615Z,119
2018-06-12T18:20:03.617Z,119
2018-06-12T18:25:03.816Z,119
2018-06-12T18:30:03.652Z,119
2018-06-12T18:35:03.680Z,119
2018-06-12T18:40:03.620Z,119
2018-06-12T18:45:03.637Z,119
2018-06-12T18:50:03.630Z,119
2018-06-12T18:55:03.630Z,119
2018-06-12T19:00:03.658Z,119
2018-06-12T19:05:03.631Z,119
2018-06-12T19:10:03.640Z,119
2018-06-12T19:15:03.661Z,119
2018-06-12T19:20:03.649Z,119
2018-06-12T19:25:03.672Z,119
2018-06-12T19:30:03.659Z,119
2018-06-12T19:35:03.657Z,119
2018-06-12T19:40:03.652Z,119
2018-06-12T19:45:03.674Z,119
2018-06-12T19:50:03.658Z,119
2018-06-12T19:55:03.755Z,119
2018-06-12T20:00:03.683Z,119
2018-06-12T20:05:03.677Z,119
2018-06-12T20:10:03.671Z,119
2018-06-12T20:15:03.686Z,119
2018-06-12T20:20:03.674Z,119
2018-06-12T20:25:03.680Z,119
2018-06-12T20:30:03.679Z,119
2018-06-12T20:35:03.710Z,119
2018-06-12T20:40:03.883Z,119
2018-06-12T20:45:03.703Z,119
2018-06-12T20:50:03.703Z,119
2018-06-12T20:55:03.689Z,119
2018-06-12T21:00:03.709Z,119
2018-06-12T21:05:03.714Z,119
2018-06-12T21:10:03.703Z,119
2018-06-12T21:15:03.718Z,119
2018-06-12T21:20:03.708Z,119
2018-06-12T21:25:03.708Z,119
2018-06-12T21:30:03.716Z,119
2018-06-12T21:35:03.714Z,119
2018-06-12T21:40:03.725Z,119
2018-06-12T21:45:03.728Z,119
2018-06-12T21:50:03.725Z,119
2018-06-12T21:55:03.726Z,119
2018-06-12T22:00:03.740Z,119
2018-06-12T22:05:03.741Z,119
2018-06-12T22:10:03.737Z,119
2018-06-12T22:15:03.746Z,119
2018-06-12T22:20:03.750Z,119
2018-06-12T22:25:03.739Z,119
2018-06-12T22:30:03.740Z,119
2018-06-12T22:35:03.758Z,119
2018-06-12T22:40:03.752Z,119
2018-06-12T22:45:03.750Z,119
2018-06-12T22:50:03.751Z,119
2018-06-12T22:55:03.770Z,119
2018-06-12T23:00:03.767Z,119
2018-06-12T23:05:03.770Z,119
2018-06-12T23:10:03.769Z,119
2018-06-12T23:15:03.770Z,119
2018-06-12T23:20:03.774Z,119
2018-06-12T23:25:03.770Z,119
2018-06-12T23:30:03.776Z,119
2018-06-12T23:35:03.786Z,119
2018-06-12T23:40:03.789Z,119
2018-06-12T23:45:03.786Z,119
2018-06-12T23:50:03.836Z,119
2018-06-12T23:55:03.786Z,119
